Latest Weather Observations for Oodnadatta

IDS60801

Issued at 3:12 pm CDT Monday 18 November 2019 (issued every 10 minutes, with the page automatically refreshed every 10 minutes)

About weather observations | Map of weather stations | Latest weather observations for SA | Other Formats
Station Details ID: 017043 Name: OODNADATTA AIRPORT Lat: -27.56 Lon: 135.45 Height: 116.5 m
Data from the previous 72 hours. | See also: Recent months at Oodnadatta
Date/Time
CDT
Temp
°C
App
Temp
°C
Dew
Point
°C
Rel
Hum
%
Delta-T
°C
Wind Press
QNH
hPa
Press
MSL
hPa
Rain since
9am
mm
Dir  Spd
km/h
Gust
km/h
Spd
kts
Gust
kts
18/03:00pm 35.3 33.0 -2.3 9 18.0 CALM 0 0 0 0 1014.7 1014.1 0.0
18/02:30pm 34.1 31.7 -3.2 9 17.4 CALM 0 0 0 0 1015.4 1014.8 0.0
18/02:00pm 33.4 30.9 -3.7 9 17.1 CALM 0 0 0 0 1016.0 1015.4 0.0
18/01:30pm 33.9 31.5 -3.4 9 17.4 CALM 0 0 0 0 1016.5 1015.9 0.0
18/01:00pm 32.8 30.4 -2.8 10 16.6 CALM 0 4 0 2 1017.1 1016.5 0.0
18/12:30pm 32.6 30.2 -2.9 10 16.5 CALM 0 0 0 0 1017.6 1017.0 0.0
18/12:00pm 31.8 29.4 -3.5 10 16.1 CALM 0 9 0 5 1017.9 1017.3 0.0
18/11:30am 30.8 28.4 -3.0 11 15.5 CALM 0 0 0 0 1018.3 1017.7 0.0
18/11:00am 30.6 28.2 -3.2 11 15.4 CALM 0 17 0 9 1018.4 1017.8 0.0
18/10:30am 30.2 27.8 -3.5 11 15.2 CALM 0 13 0 7 1018.6 1018.0 0.0
18/10:00am 28.9 26.1 -3.3 12 14.5 NNE 2 28 1 15 1018.8 1018.2 0.0
18/09:30am 28.0 22.4 -3.0 13 13.9 NE 17 30 9 16 1019.0 1018.4 0.0
18/09:00am 26.7 21.1 -3.0 14 13.1 NE 17 28 9 15 1019.1 1018.5 0.0
18/08:30am 24.8 22.6 -1.9 17 11.9 CALM 0 0 0 0 1018.9 1018.3 0.0
18/08:00am 21.3 18.9 -3.2 19 10.3 CALM 0 0 0 0 1018.7 1018.1 0.0
18/07:30am 18.2 15.6 -4.5 21 9.0 CALM 0 0 0 0 1018.2 1017.6 0.0
18/07:00am 15.7 13.1 -5.3 23 8.0 CALM 0 0 0 0 1017.9 1017.3 0.0
18/06:30am 17.8 15.3 -3.6 23 8.6 CALM 0 0 0 0 1017.5 1016.9 0.0
18/06:00am 17.5 15.0 -3.8 23 8.5 CALM 0 0 0 0 1017.4 1016.8 0.0
18/05:30am 17.9 15.4 -4.1 22 8.8 CALM 0 0 0 0 1017.2 1016.6 0.0
18/05:00am 19.0 16.6 -3.2 22 9.2 CALM 0 0 0 0 1017.1 1016.5 0.0
18/04:30am 19.2 16.7 -3.6 21 9.3 CALM 0 0 0 0 1016.9 1016.3 0.0
18/04:00am 19.4 17.0 -2.8 22 9.3 CALM 0 0 0 0 1016.8 1016.2 0.0
18/03:30am 18.7 16.2 -4.0 21 9.2 CALM 0 0 0 0 1016.9 1016.3 0.0
18/03:00am 18.9 16.3 -4.5 20 9.4 CALM 0 0 0 0 1016.9 1016.3 0.0
18/02:30am 19.7 17.1 -5.3 18 9.9 CALM 0 0 0 0 1017.2 1016.6 0.0
18/02:00am 20.8 18.3 -3.6 19 10.2 CALM 0 0 0 0 1017.4 1016.8 0.0
18/01:30am 21.0 18.6 -3.5 19 10.2 CALM 0 0 0 0 1017.6 1017.0 0.0
18/01:00am 21.5 19.1 -3.1 19 10.4 CALM 0 0 0 0 1018.0 1017.4 0.0
18/12:30am 22.2 19.9 -2.5 19 10.6 CALM 0 0 0 0 1018.2 1017.6 0.0
18/12:00am 23.2 20.9 -2.4 18 11.1 CALM 0 0 0 0 1018.3 1017.7 0.0
 
Date/Time
CDT
Temp
°C
App
Temp
°C
Dew
Point
°C
Rel
Hum
%
Delta-T
°C
Wind Press
QNH
hPa
Press
MSL
hPa
Rain since
9am
mm
Dir  Spd
km/h
Gust
km/h
Spd
kts
Gust
kts
17/11:30pm 23.7 21.4 -2.0 18 11.3 CALM 0 0 0 0 1018.3 1017.7 0.0
17/11:00pm 24.8 22.6 -1.9 17 11.9 CALM 0 0 0 0 1018.3 1017.7 0.0
17/10:30pm 25.3 23.1 -1.5 17 12.1 CALM 0 0 0 0 1018.2 1017.6 0.0
17/10:00pm 26.6 24.4 -1.3 16 12.8 CALM 0 0 0 0 1018.1 1017.5 0.0
17/09:30pm 27.3 25.1 -1.6 15 13.2 CALM 0 0 0 0 1017.8 1017.2 0.0
17/09:00pm 28.4 26.2 -1.6 14 13.8 CALM 0 0 0 0 1017.5 1016.9 0.0
17/08:30pm 29.9 27.7 -1.5 13 14.6 CALM 0 0 0 0 1017.3 1016.7 0.0
17/08:00pm 31.4 29.4 -0.3 13 15.3 CALM 0 0 0 0 1016.9 1016.3 0.0
17/07:30pm 32.3 30.2 -0.7 12 15.9 CALM 0 0 0 0 1016.7 1016.1 0.0
17/07:00pm 33.1 31.1 -0.1 12 16.2 CALM 0 0 0 0 1016.5 1015.9 0.0
17/06:30pm 33.7 31.0 0.4 12 16.5 SE 4 33 2 18 1016.4 1015.8 0.0
17/06:00pm 33.3 30.0 -1.1 11 16.6 SSE 6 33 3 18 1016.3 1015.7 0.0
17/05:30pm 33.0 31.0 -0.2 12 16.2 CALM 0 28 0 15 1016.4 1015.8 0.0
17/05:00pm 33.9 32.0 0.5 12 16.6 CALM 0 0 0 0 1016.5 1015.9 0.0
17/04:30pm 34.0 32.3 1.7 13 16.4 CALM 0 0 0 0 1016.5 1015.9 0.0
17/04:00pm 33.5 31.3 1.3 13 16.2 SSE 2 37 1 20 1016.8 1016.2 0.0
17/03:30pm 32.9 29.3 0.9 13 15.9 SSE 9 30 5 16 1017.2 1016.6 0.0
17/03:00pm 32.8 29.4 1.8 14 15.6 ESE 9 33 5 18 1017.3 1016.7 0.0
17/02:30pm 32.5 29.2 2.5 15 15.2 SE 9 32 5 17 1017.7 1017.1 0.0
17/02:00pm 31.8 29.5 2.9 16 14.7 SSE 4 32 2 17 1018.3 1017.7 0.0
17/01:30pm 31.6 28.7 2.7 16 14.6 S 7 32 4 17 1018.6 1018.0 0.0
17/01:00pm 31.2 29.5 4.1 18 14.1 SE 2 28 1 15 1019.0 1018.4 0.0
17/12:30pm 30.2 26.4 4.0 19 13.5 SE 13 33 7 18 1019.6 1018.9 0.0
17/12:00pm 29.5 27.1 4.2 20 13.0 SE 6 30 3 16 1019.8 1019.2 0.0
17/11:30am 28.4 24.5 3.3 20 12.6 SE 13 32 7 17 1020.2 1019.6 0.0
17/11:00am 27.4 22.6 2.5 20 12.3 SE 17 32 9 17 1020.6 1020.0 0.0
17/10:30am 26.8 22.4 2.7 21 11.8 SE 15 32 8 17 1020.8 1020.2 0.0
17/10:00am 25.7 19.2 2.4 22 11.3 SE 26 32 14 17 1021.2 1020.6 0.0
17/09:30am 24.8 18.2 2.3 23 10.8 SE 26 33 14 18 1021.0 1020.4 0.0
17/09:00am 23.9 17.7 2.1 24 10.4 SSE 24 30 13 16 1020.8 1020.2 0.0
17/08:30am 22.6 17.4 2.7 27 9.5 SSE 19 26 10 14 1020.5 1019.9 0.0
17/08:00am 21.3 16.9 2.6 29 8.8 S 15 20 8 11 1020.3 1019.7 0.0
17/07:30am 19.8 18.1 1.7 30 8.3 CALM 0 11 0 6 1020.0 1019.4 0.0
17/07:00am 18.5 16.3 1.1 31 7.8 SSW 2 17 1 9 1019.5 1018.8 0.0
17/06:30am 17.8 15.4 0.0 30 7.7 SSW 2 17 1 9 1019.1 1018.5 0.0
17/06:00am 18.4 16.5 0.5 30 7.9 CALM 0 17 0 9 1018.7 1018.1 0.0
17/05:30am 19.0 17.2 1.1 30 8.0 CALM 0 0 0 0 1018.4 1017.8 0.0
17/05:00am 19.0 17.2 1.1 30 8.1 CALM 0 0 0 0 1018.0 1017.4 0.0
17/04:30am 19.0 17.0 -0.4 27 8.5 CALM 0 0 0 0 1017.9 1017.3 0.0
17/04:00am 20.6 19.0 2.4 30 8.5 CALM 0 0 0 0 1017.8 1017.2 0.0
17/03:30am 21.1 19.5 2.4 29 8.8 CALM 0 0 0 0 1017.8 1017.2 0.0
17/03:00am 21.0 19.0 0.2 25 9.3 CALM 0 0 0 0 1017.6 1017.0 0.0
17/02:30am 21.2 19.0 -1.3 22 9.8 CALM 0 0 0 0 1017.6 1017.0 0.0
17/02:00am 22.2 20.1 -1.1 21 10.3 CALM 0 0 0 0 1017.7 1017.1 0.0
17/01:30am 24.2 19.7 -0.2 20 11.2 SE 13 24 7 13 1018.0 1017.4 0.0
17/01:00am 24.9 18.3 -0.3 19 11.6 SSE 24 28 13 15 1018.0 1017.4 0.0
17/12:30am 25.4 19.2 -0.6 18 11.9 SSE 22 26 12 14 1018.2 1017.6 0.0
17/12:00am 25.7 22.8 -1.2 17 12.2 S 4 24 2 13 1018.2 1017.6 0.0
 
Date/Time
CDT
Temp
°C
App
Temp
°C
Dew
Point
°C
Rel
Hum
%
Delta-T
°C
Wind Press
QNH
hPa
Press
MSL
hPa
Rain since
9am
mm
Dir  Spd
km/h
Gust
km/h
Spd
kts
Gust
kts
16/11:30pm 25.6 23.4 -1.2 17 12.2 CALM 0 0 0 0 1018.3 1017.7 0.0
16/11:00pm 26.1 23.9 -1.7 16 12.6 CALM 0 0 0 0 1018.1 1017.5 0.0
16/10:30pm 26.5 24.2 -2.2 15 12.9 CALM 0 0 0 0 1018.0 1017.4 0.0
16/10:00pm 28.0 25.7 -2.0 14 13.7 CALM 0 0 0 0 1017.6 1017.0 0.0
16/09:30pm 29.0 26.7 -2.2 13 14.3 CALM 0 0 0 0 1017.3 1016.7 0.0
16/09:00pm 30.2 27.7 -1.2 13 14.8 S 2 22 1 12 1016.9 1016.3 0.0
16/08:30pm 31.0 25.9 -1.7 12 15.3 S 15 28 8 15 1016.5 1015.9 0.0
16/08:00pm 31.8 25.1 -1.1 12 15.7 SSW 24 33 13 18 1016.1 1015.5 0.0
16/07:30pm 32.6 25.4 -1.7 11 16.3 SSW 26 35 14 19 1015.8 1015.2 0.0
16/07:00pm 33.2 26.3 -2.5 10 16.8 SSW 24 39 13 21 1015.4 1014.8 0.0
16/06:30pm 33.8 26.4 -3.5 9 17.3 SSW 26 44 14 24 1015.2 1014.6 0.0
16/06:00pm 34.0 28.0 -3.3 9 17.4 SSW 19 33 10 18 1015.1 1014.5 0.0
16/05:30pm 34.7 29.5 -2.8 9 17.7 SSW 15 39 8 21 1015.0 1014.4 0.0
16/05:00pm 34.8 31.1 -2.7 9 17.8 SSW 7 39 4 21 1014.9 1014.3 0.0
16/04:30pm 33.9 31.1 -3.4 9 17.4 SW 2 33 1 18 1015.1 1014.5 0.0
16/04:00pm 34.4 31.6 -3.0 9 17.6 S 2 35 1 19 1015.3 1014.7 0.0
16/03:30pm 34.2 31.6 -1.7 10 17.2 SW 2 33 1 18 1015.6 1015.0 0.0
16/03:00pm 32.5 30.3 -1.7 11 16.2 CALM 0 0 0 0 1016.1 1015.5 0.0
16/02:30pm 32.7 29.6 -2.9 10 16.6 SSW 4 35 2 19 1016.4 1015.8 0.0
16/02:00pm 31.7 29.5 -1.2 12 15.7 CALM 0 0 0 0 1016.7 1016.1 0.0
16/01:30pm 32.5 30.3 -1.7 11 16.2 CALM 0 0 0 0 1017.0 1016.4 0.0
16/01:00pm 31.1 28.9 -1.6 12 15.4 CALM 0 0 0 0 1017.7 1017.1 0.0
16/12:30pm 31.0 29.1 0.4 14 14.9 CALM 0 0 0 0 1018.0 1017.4 0.0
16/12:00pm 29.8 28.0 1.3 16 13.9 CALM 0 0 0 0 1018.4 1017.8 0.0
16/11:30am 28.3 26.6 1.7 18 13.0 CALM 0 0 0 0 1018.7 1018.1 0.0
16/11:00am 27.3 25.7 2.4 20 12.2 CALM 0 0 0 0 1019.0 1018.4 0.0
16/10:30am 26.2 24.6 2.2 21 11.6 CALM 0 0 0 0 1019.1 1018.5 0.0
16/10:00am 25.4 23.8 2.2 22 11.2 CALM 0 0 0 0 1019.2 1018.6 0.0
16/09:30am 23.8 22.0 1.4 23 10.5 CALM 0 0 0 0 1019.3 1018.7 0.0
16/09:00am 23.3 21.4 0.4 22 10.5 CALM 0 0 0 0 1019.2 1018.6 0.0
16/08:30am 21.8 19.7 -0.8 22 10.0 CALM 0 0 0 0 1018.7 1018.1 0.0
16/08:00am 20.9 18.7 -1.6 22 9.8 CALM 0 0 0 0 1018.5 1017.9 0.0
16/07:30am 19.7 17.5 -1.4 24 9.1 CALM 0 0 0 0 1018.0 1017.4 0.0
16/07:00am 18.4 16.1 -2.0 25 8.6 CALM 0 0 0 0 1017.6 1017.0 0.0
16/06:30am 18.2 16.0 -1.6 26 8.4 CALM 0 0 0 0 1017.3 1016.7 0.0
16/06:00am 18.4 16.2 -1.4 26 8.4 CALM 0 0 0 0 1016.7 1016.1 0.0
16/05:30am 19.1 16.9 -1.4 25 8.8 CALM 0 0 0 0 1016.6 1016.0 0.0
16/05:00am 19.9 17.7 -1.2 24 9.1 CALM 0 0 0 0 1016.5 1015.9 0.0
16/04:30am 20.2 18.0 -1.6 23 9.4 CALM 0 0 0 0 1016.5 1015.9 0.0
16/04:00am 21.0 18.8 -1.5 22 9.8 CALM 0 0 0 0 1016.6 1016.0 0.0
16/03:30am 21.9 19.8 -0.8 22 10.1 CALM 0 0 0 0 1016.6 1016.0 0.0
16/03:00am 22.6 19.7 -0.8 21 10.4 S 4 30 2 16 1016.6 1016.0 0.0
16/02:30am 23.3 18.7 -0.9 20 10.8 S 13 33 7 18 1016.6 1016.0 0.0
16/02:00am 23.7 20.8 -1.3 19 11.2 S 4 33 2 18 1016.7 1016.1 0.0
16/01:30am 24.4 21.8 -1.4 18 11.6 S 2 32 1 17 1016.9 1016.3 0.0
16/01:00am 25.0 21.5 -1.7 17 12.0 S 7 33 4 18 1016.8 1016.2 0.0
16/12:30am 25.7 19.6 -2.0 16 12.4 S 20 37 11 20 1016.8 1016.2 0.0
16/12:00am 26.6 20.7 -2.1 15 12.9 S 19 46 10 25 1016.3 1015.7 0.0
 
Date/Time
CDT
Temp
°C
App
Temp
°C
Dew
Point
°C
Rel
Hum
%
Delta-T
°C
Wind Press
QNH
hPa
Press
MSL
hPa
Rain since
9am
mm
Dir  Spd
km/h
Gust
km/h
Spd
kts
Gust
kts
15/11:30pm 27.4 23.8 -2.4 14 13.4 S 7 41 4 22 1016.2 1015.6 0.0
15/11:00pm 25.8 23.1 -5.7 12 13.2 CALM 0 0 0 0 1015.7 1015.1 0.0
15/10:30pm 26.9 24.2 -6.0 11 13.8 CALM 0 0 0 0 1015.5 1014.9 0.0
15/10:00pm 28.6 25.9 -6.0 10 14.8 CALM 0 0 0 0 1015.2 1014.6 0.0
15/09:30pm 30.0 27.4 -4.9 10 15.4 CALM 0 0 0 0 1014.9 1014.3 0.0
15/09:00pm 30.8 28.3 -4.3 10 15.7 CALM 0 0 0 0 1014.6 1014.0 0.0
15/08:30pm 32.0 29.6 -3.4 10 16.3 CALM 0 22 0 12 1014.2 1013.6 0.0
15/08:00pm 32.8 30.3 -4.2 9 16.9 CALM 0 0 0 0 1014.0 1013.4 0.0
15/07:30pm 33.8 31.2 -5.0 8 17.6 CALM 0 0 0 0 1013.7 1013.1 0.0
15/07:00pm 34.4 31.1 -4.6 8 17.9 S 4 24 2 13 1013.3 1012.7 0.0
15/06:30pm 34.6 28.8 -4.4 8 18.0 S 17 35 9 19 1013.0 1012.4 0.0
15/06:00pm 34.5 29.5 -4.5 8 17.9 - 13 32 7 17 1012.9 1012.3 0.0
15/05:30pm 35.1 29.4 -4.1 8 18.2 SSE 17 32 9 17 1012.9 1012.3 0.0
15/05:00pm 35.3 31.5 -3.9 8 18.3 SSE 7 22 4 12 1013.1 1012.5 0.0
15/04:30pm 36.0 30.7 -3.4 8 18.6 S 15 35 8 19 1012.9 1012.3 0.0
15/04:00pm 35.0 30.4 -4.1 8 18.2 S 11 30 6 16 1013.2 1012.6 0.0
15/03:30pm 35.0 28.9 -4.1 8 18.2 SSE 19 30 10 16 1013.5 1012.9 0.0

Other formats

Comma delimited format used in spreadsheet applications
http://www.bom.gov.au/fwo/IDS60801/IDS60801.94476.axf

JavaScript Object Notation format (JSON) in row-major order
http://www.bom.gov.au/fwo/IDS60801/IDS60801.94476.json

Data quality

Most of these data are generated automatically and are frequently updated. Quality checks on data are not normally performed. It is possible for incorrect values to appear. Refer to information at About Latest Weather Observations and please check the disclaimer before using these data.